createdAt,value
2022-09-18T00:00:44.396Z,70.85
2022-09-18T00:01:46.234Z,70.89
2022-09-18T00:02:48.097Z,70.92
2022-09-18T00:03:49.949Z,70.98
2022-09-18T00:04:51.792Z,70.99
2022-09-18T00:05:53.627Z,70.95
2022-09-18T00:06:55.531Z,70.93
2022-09-18T00:07:57.340Z,70.95
2022-09-18T00:08:59.191Z,70.93
2022-09-18T00:10:01.052Z,70.91
2022-09-18T00:11:02.887Z,70.85
2022-09-18T00:12:04.686Z,70.75
2022-09-18T00:13:06.493Z,70.65
2022-09-18T00:14:08.293Z,70.57
2022-09-18T00:15:10.095Z,70.52
2022-09-18T00:16:13.404Z,70.58
2022-09-18T00:17:15.246Z,70.66
2022-09-18T00:18:17.055Z,70.67
2022-09-18T00:19:18.861Z,70.60
2022-09-18T00:20:21.883Z,70.61
2022-09-18T00:21:23.717Z,70.65
2022-09-18T00:22:25.830Z,70.65
2022-09-18T00:23:27.642Z,70.59
2022-09-18T00:24:29.439Z,70.62
2022-09-18T00:25:31.242Z,70.65
2022-09-18T00:26:33.167Z,70.60
2022-09-18T00:27:34.972Z,70.58
2022-09-18T00:28:36.820Z,70.58
2022-09-18T00:29:38.612Z,70.61
2022-09-18T00:30:40.510Z,70.60
2022-09-18T00:31:42.522Z,70.63
2022-09-18T00:32:44.366Z,70.64
2022-09-18T00:33:46.246Z,70.59
2022-09-18T00:34:48.052Z,70.58
2022-09-18T00:35:49.898Z,70.58
2022-09-18T00:36:51.909Z,70.59
2022-09-18T00:37:53.722Z,70.58
2022-09-18T00:38:55.528Z,70.51
2022-09-18T00:39:57.365Z,70.53
2022-09-18T00:40:59.228Z,70.60
2022-09-18T00:42:01.055Z,70.67
2022-09-18T00:43:02.854Z,70.71
2022-09-18T00:44:04.665Z,70.77
2022-09-18T00:45:06.496Z,70.77
2022-09-18T00:46:09.453Z,70.81
2022-09-18T00:47:11.234Z,70.81
2022-09-18T00:48:13.051Z,70.81
2022-09-18T00:49:14.953Z,70.83
2022-09-18T00:50:17.759Z,70.75
2022-09-18T00:51:19.554Z,70.70
2022-09-18T00:52:21.393Z,70.73
2022-09-18T00:53:23.206Z,70.71
2022-09-18T00:54:25.011Z,70.74
2022-09-18T00:55:26.802Z,70.81
2022-09-18T00:56:28.916Z,70.87
2022-09-18T00:57:30.755Z,70.90
2022-09-18T00:58:32.551Z,70.91
2022-09-18T00:59:34.357Z,70.94
2022-09-18T01:00:36.326Z,71.01
2022-09-18T01:01:38.166Z,71.04
2022-09-18T01:02:40.387Z,71.09
2022-09-18T01:03:42.255Z,71.11
2022-09-18T01:04:44.082Z,71.14
2022-09-18T01:05:45.879Z,71.17
2022-09-18T01:06:47.785Z,71.18
2022-09-18T01:07:49.629Z,71.20
2022-09-18T01:08:51.438Z,71.16
2022-09-18T01:09:53.233Z,71.17
2022-09-18T01:10:55.128Z,71.15
2022-09-18T01:11:56.831Z,71.16
2022-09-18T01:12:58.678Z,71.19
2022-09-18T01:14:00.684Z,71.23
2022-09-18T01:15:02.479Z,71.25
2022-09-18T01:16:04.441Z,71.29
2022-09-18T01:17:06.192Z,71.28
2022-09-18T01:18:08.021Z,71.31
2022-09-18T01:19:09.817Z,71.32
2022-09-18T01:20:13.172Z,71.34
2022-09-18T01:21:15.077Z,71.39
2022-09-18T01:22:16.871Z,71.44
2022-09-18T01:23:18.720Z,71.48
2022-09-18T01:24:20.529Z,71.52
2022-09-18T01:25:22.330Z,71.34
2022-09-18T01:26:25.351Z,71.56
2022-09-18T01:27:27.148Z,71.52
2022-09-18T01:28:28.975Z,71.42
2022-09-18T01:29:30.770Z,71.45
2022-09-18T01:30:32.571Z,71.46
2022-09-18T01:31:34.448Z,71.45
2022-09-18T01:32:36.481Z,71.53
2022-09-18T01:33:38.326Z,71.62
2022-09-18T01:34:40.127Z,71.59
2022-09-18T01:35:42.688Z,71.51
2022-09-18T01:36:44.637Z,71.44
2022-09-18T01:37:46.428Z,71.53
2022-09-18T01:38:48.261Z,71.61
2022-09-18T01:39:50.067Z,71.63
2022-09-18T01:40:51.967Z,71.57
2022-09-18T01:41:53.769Z,71.49
2022-09-18T01:42:55.575Z,71.43
2022-09-18T01:43:57.388Z,71.45
2022-09-18T01:44:59.187Z,71.55
2022-09-18T01:46:00.988Z,71.64
2022-09-18T01:47:02.874Z,71.69
2022-09-18T01:48:04.691Z,71.72
2022-09-18T01:49:06.518Z,71.67
2022-09-18T01:50:08.541Z,71.56
2022-09-18T01:51:10.364Z,71.50
2022-09-18T01:52:12.164Z,71.37
2022-09-18T01:53:13.968Z,71.25
2022-09-18T01:54:15.816Z,71.24
2022-09-18T01:55:17.613Z,71.21
2022-09-18T01:56:20.425Z,71.16
2022-09-18T01:57:22.228Z,71.16
2022-09-18T01:58:24.036Z,71.31
2022-09-18T01:59:25.995Z,71.34
2022-09-18T02:00:27.997Z,71.36
2022-09-18T02:01:29.906Z,71.42
2022-09-18T02:02:31.783Z,71.49
2022-09-18T02:03:33.597Z,71.58
2022-09-18T02:04:35.424Z,71.62
2022-09-18T02:05:37.222Z,71.71
2022-09-18T02:06:39.145Z,71.73
2022-09-18T02:07:40.950Z,71.73
2022-09-18T02:08:42.745Z,71.70
2022-09-18T02:09:44.587Z,71.77
2022-09-18T02:10:46.494Z,71.83
2022-09-18T02:11:48.298Z,71.79
2022-09-18T02:12:50.096Z,71.82
2022-09-18T02:13:51.895Z,71.89
2022-09-18T02:14:53.718Z,71.96
2022-09-18T02:15:55.560Z,72.02
2022-09-18T02:16:57.421Z,72.07
2022-09-18T02:17:59.217Z,72.09
2022-09-18T02:19:01.009Z,72.13
2022-09-18T02:20:02.937Z,72.14
2022-09-18T02:21:04.729Z,72.13
2022-09-18T02:22:06.629Z,72.10
2022-09-18T02:23:08.427Z,72.07
2022-09-18T02:24:10.233Z,72.08
2022-09-18T02:25:12.071Z,72.08
2022-09-18T02:26:14.611Z,72.12
2022-09-18T02:27:16.397Z,72.11
2022-09-18T02:28:18.190Z,72.11
2022-09-18T02:29:19.896Z,72.13
2022-09-18T02:30:22.430Z,72.14
2022-09-18T02:31:24.307Z,72.15
2022-09-18T02:32:26.129Z,72.14
2022-09-18T02:33:27.943Z,72.13
2022-09-18T02:34:29.728Z,72.02
2022-09-18T02:35:31.554Z,71.99
2022-09-18T02:36:33.662Z,72.01
2022-09-18T02:37:35.561Z,72.08
2022-09-18T02:38:37.362Z,72.11
2022-09-18T02:39:39.155Z,72.09
2022-09-18T02:40:41.196Z,72.15
2022-09-18T02:41:42.980Z,72.19
2022-09-18T02:42:44.778Z,72.20
2022-09-18T02:43:46.573Z,72.20
2022-09-18T02:44:48.383Z,72.19
2022-09-18T02:45:50.191Z,72.20
2022-09-18T02:46:52.132Z,72.25
2022-09-18T02:47:53.969Z,72.31
2022-09-18T02:48:55.772Z,72.34
2022-09-18T02:49:57.565Z,72.38
2022-09-18T02:50:59.495Z,72.40
2022-09-18T02:52:01.279Z,72.35
2022-09-18T02:53:03.176Z,72.35
2022-09-18T02:54:04.878Z,72.41
2022-09-18T02:55:06.679Z,72.41
2022-09-18T02:56:08.809Z,72.44
2022-09-18T02:57:10.629Z,72.38
2022-09-18T02:58:12.418Z,72.35
2022-09-18T02:59:14.204Z,72.38
2022-09-18T03:00:16.416Z,72.33
2022-09-18T03:01:18.308Z,72.24
2022-09-18T03:02:20.149Z,72.18
2022-09-18T03:03:22.046Z,72.20
2022-09-18T03:04:23.850Z,72.25
2022-09-18T03:05:25.654Z,72.32
2022-09-18T03:06:27.573Z,72.36
2022-09-18T03:07:29.365Z,72.34
2022-09-18T03:08:31.079Z,72.36
2022-09-18T03:09:32.883Z,72.26
2022-09-18T03:10:34.774Z,72.16
2022-09-18T03:11:36.595Z,72.11
2022-09-18T03:12:38.380Z,72.11
2022-09-18T03:13:40.171Z,72.11
2022-09-18T03:14:41.868Z,72.05
2022-09-18T03:15:43.720Z,72.00
2022-09-18T03:16:45.595Z,72.06
2022-09-18T03:17:47.381Z,72.16
2022-09-18T03:18:49.177Z,72.15
2022-09-18T03:19:50.984Z,72.18
2022-09-18T03:20:52.884Z,72.17
2022-09-18T03:21:54.710Z,72.21
2022-09-18T03:22:56.508Z,72.22
2022-09-18T03:23:58.508Z,72.17
2022-09-18T03:25:00.301Z,72.20
2022-09-18T03:26:02.393Z,72.23
2022-09-18T03:27:04.234Z,72.23
2022-09-18T03:28:06.043Z,72.22
2022-09-18T03:29:07.829Z,72.20
2022-09-18T03:30:10.155Z,72.19
2022-09-18T03:31:12.012Z,72.19
2022-09-18T03:32:13.864Z,72.22
2022-09-18T03:33:15.635Z,72.17
2022-09-18T03:34:17.436Z,72.17
2022-09-18T03:35:19.232Z,72.22
2022-09-18T03:36:22.850Z,72.23
2022-09-18T03:37:24.672Z,72.25
2022-09-18T03:38:26.464Z,72.23
2022-09-18T03:39:28.270Z,72.21
2022-09-18T03:40:31.242Z,72.19
2022-09-18T03:41:32.969Z,72.09
2022-09-18T03:42:34.799Z,72.01
2022-09-18T03:43:36.574Z,71.98
2022-09-18T03:44:38.386Z,71.97
2022-09-18T03:45:40.182Z,71.97
2022-09-18T03:46:42.045Z,71.99
2022-09-18T03:47:43.925Z,72.00
2022-09-18T03:48:45.715Z,71.99
2022-09-18T03:49:47.519Z,71.94
2022-09-18T03:50:49.407Z,71.93
2022-09-18T03:51:51.205Z,71.97
2022-09-18T03:52:53.040Z,72.00
2022-09-18T03:53:54.848Z,72.03
2022-09-18T03:54:56.696Z,72.05
2022-09-18T03:55:58.488Z,72.10
2022-09-18T03:57:00.386Z,72.13
2022-09-18T03:58:02.239Z,72.12
2022-09-18T03:59:04.034Z,72.13
2022-09-18T04:00:05.932Z,72.08
2022-09-18T04:01:07.730Z,72.07
2022-09-18T04:02:09.694Z,72.08
2022-09-18T04:03:11.515Z,72.17
2022-09-18T04:04:13.371Z,72.17
2022-09-18T04:05:15.151Z,72.20
2022-09-18T04:06:17.555Z,72.20
2022-09-18T04:07:19.344Z,72.11
2022-09-18T04:08:21.187Z,72.02
2022-09-18T04:09:22.949Z,72.09
2022-09-18T04:10:24.903Z,72.19
2022-09-18T04:11:26.696Z,72.30
2022-09-18T04:12:28.391Z,72.39
2022-09-18T04:13:30.242Z,72.41
2022-09-18T04:14:31.936Z,72.44
2022-09-18T04:15:33.736Z,72.51
2022-09-18T04:16:35.697Z,72.58
2022-09-18T04:17:37.437Z,72.71
2022-09-18T04:18:39.270Z,72.82
2022-09-18T04:19:41.075Z,72.91
2022-09-18T04:20:42.957Z,72.99
2022-09-18T04:21:44.773Z,73.06
2022-09-18T04:22:46.577Z,73.10
2022-09-18T04:23:48.406Z,72.99
2022-09-18T04:24:50.195Z,72.99
2022-09-18T04:25:51.991Z,73.05
2022-09-18T04:26:53.891Z,73.13
2022-09-18T04:27:55.691Z,73.22
2022-09-18T04:28:57.521Z,73.32
2022-09-18T04:29:59.320Z,73.40
2022-09-18T04:31:01.234Z,73.45
2022-09-18T04:32:03.023Z,73.50
2022-09-18T04:33:04.832Z,73.54
2022-09-18T04:34:06.672Z,73.57
2022-09-18T04:35:08.469Z,73.58
2022-09-18T04:36:10.576Z,73.61
2022-09-18T04:37:12.374Z,73.60
2022-09-18T04:38:14.177Z,73.62
2022-09-18T04:39:16.028Z,73.62
2022-09-18T04:40:19.598Z,73.59
2022-09-18T04:41:21.506Z,73.62
2022-09-18T04:42:23.311Z,73.69
2022-09-18T04:43:25.110Z,73.75
2022-09-18T04:44:26.946Z,73.76
2022-09-18T04:45:28.736Z,73.81
2022-09-18T04:46:30.704Z,73.81
2022-09-18T04:47:32.537Z,73.79
2022-09-18T04:48:34.338Z,73.76
2022-09-18T04:49:36.167Z,73.76
2022-09-18T04:50:38.270Z,73.75
2022-09-18T04:51:40.061Z,73.75
2022-09-18T04:52:41.862Z,73.69
2022-09-18T04:53:43.672Z,73.62
2022-09-18T04:54:45.513Z,73.55
2022-09-18T04:55:47.309Z,73.46
2022-09-18T04:56:49.285Z,73.46
2022-09-18T04:57:54.364Z,73.41
2022-09-18T04:58:54.711Z,73.35
2022-09-18T04:59:56.559Z,73.29
2022-09-18T05:00:58.517Z,73.26
2022-09-18T05:02:00.398Z,73.24
2022-09-18T05:03:02.170Z,73.24
2022-09-18T05:04:03.980Z,73.23
2022-09-18T05:05:05.917Z,73.19
2022-09-18T05:06:08.410Z,73.20
2022-09-18T05:07:10.213Z,73.20
2022-09-18T05:08:12.018Z,73.21
2022-09-18T05:09:13.832Z,73.21
2022-09-18T05:10:16.384Z,73.21
2022-09-18T05:11:18.226Z,73.22
2022-09-18T05:12:20.042Z,73.26
2022-09-18T05:13:21.852Z,73.33
2022-09-18T05:14:23.652Z,73.39
2022-09-18T05:15:25.623Z,73.43
2022-09-18T05:16:28.018Z,73.49
2022-09-18T05:17:29.864Z,73.54
2022-09-18T05:18:31.634Z,73.54
2022-09-18T05:19:33.438Z,73.58
2022-09-18T05:20:35.377Z,73.64
2022-09-18T05:21:37.203Z,73.71
2022-09-18T05:22:39.000Z,73.74
2022-09-18T05:23:40.803Z,73.82
2022-09-18T05:24:42.681Z,73.86
2022-09-18T05:25:44.517Z,73.91
2022-09-18T05:26:46.433Z,73.98
2022-09-18T05:27:48.271Z,74.03
2022-09-18T05:28:50.125Z,74.12
2022-09-18T05:29:51.933Z,74.16
2022-09-18T05:30:53.873Z,74.24
2022-09-18T05:31:55.875Z,74.29
2022-09-18T05:32:59.093Z,74.32
2022-09-18T05:34:01.170Z,74.36
2022-09-18T05:35:02.997Z,74.37
2022-09-18T05:36:04.927Z,74.39
2022-09-18T05:37:06.722Z,74.41
2022-09-18T05:38:08.557Z,74.44
2022-09-18T05:39:14.221Z,74.44
2022-09-18T05:40:14.824Z,74.42
2022-09-18T05:41:16.836Z,74.43
2022-09-18T05:42:18.656Z,74.47
2022-09-18T05:43:20.574Z,74.44
2022-09-18T05:44:22.366Z,74.45
2022-09-18T05:45:24.178Z,74.45
2022-09-18T05:46:26.404Z,74.44
2022-09-18T05:47:28.249Z,74.43
2022-09-18T05:48:30.043Z,74.44
2022-09-18T05:49:31.858Z,74.42
2022-09-18T05:50:33.753Z,74.43
2022-09-18T05:51:35.592Z,74.44
2022-09-18T05:52:37.443Z,74.43
2022-09-18T05:53:39.280Z,74.39
2022-09-18T05:54:41.119Z,74.42
2022-09-18T05:55:42.916Z,74.39
2022-09-18T05:56:44.967Z,74.40
2022-09-18T05:57:46.851Z,74.39
2022-09-18T05:58:48.680Z,74.39
2022-09-18T05:59:50.476Z,74.38
2022-09-18T06:00:52.416Z,74.36
2022-09-18T06:01:54.291Z,74.37
2022-09-18T06:02:56.069Z,74.37
2022-09-18T06:03:57.847Z,74.34
2022-09-18T06:04:59.663Z,74.35
2022-09-18T06:06:01.481Z,74.38
2022-09-18T06:07:03.325Z,74.39
2022-09-18T06:08:05.131Z,74.33
2022-09-18T06:09:06.941Z,74.33
2022-09-18T06:10:09.460Z,74.29
2022-09-18T06:11:11.257Z,74.28
2022-09-18T06:12:13.103Z,74.29
2022-09-18T06:13:14.961Z,74.29
2022-09-18T06:14:16.853Z,74.28
2022-09-18T06:15:18.662Z,74.33
2022-09-18T06:16:21.068Z,74.36
2022-09-18T06:17:22.906Z,74.39
2022-09-18T06:18:24.722Z,74.46
2022-09-18T06:19:26.542Z,74.46
2022-09-18T06:20:28.735Z,74.42
2022-09-18T06:21:30.558Z,74.42
2022-09-18T06:22:32.412Z,74.45
2022-09-18T06:23:34.309Z,74.50
2022-09-18T06:24:36.121Z,74.52
2022-09-18T06:25:37.932Z,74.58
2022-09-18T06:26:40.042Z,74.55
2022-09-18T06:27:41.899Z,74.53
2022-09-18T06:28:43.716Z,74.51
2022-09-18T06:29:45.600Z,74.45
2022-09-18T06:30:47.681Z,74.43
2022-09-18T06:31:49.580Z,74.37
2022-09-18T06:32:51.444Z,74.30
2022-09-18T06:33:53.253Z,74.25
2022-09-18T06:34:55.044Z,74.20
2022-09-18T06:35:56.853Z,74.15
2022-09-18T06:36:58.781Z,74.12
2022-09-18T06:38:00.628Z,74.09
2022-09-18T06:39:02.471Z,74.02
2022-09-18T06:40:04.575Z,73.99
2022-09-18T06:41:06.423Z,73.92
2022-09-18T06:42:08.226Z,73.90
2022-09-18T06:43:10.062Z,73.90
2022-09-18T06:44:11.895Z,73.87
2022-09-18T06:45:13.813Z,73.89
2022-09-18T06:46:17.429Z,73.92
2022-09-18T06:47:19.207Z,73.93
2022-09-18T06:48:21.777Z,73.94
2022-09-18T06:49:23.581Z,73.96
2022-09-18T06:50:25.882Z,74.01
2022-09-18T06:51:27.730Z,74.04
2022-09-18T06:52:29.549Z,74.09
2022-09-18T06:53:31.440Z,74.08
2022-09-18T06:54:33.249Z,74.09
2022-09-18T06:55:35.029Z,74.13
2022-09-18T06:56:36.941Z,74.12
2022-09-18T06:57:38.739Z,74.09
2022-09-18T06:58:40.594Z,74.08
2022-09-18T06:59:42.388Z,74.09
2022-09-18T07:00:44.932Z,74.08
2022-09-18T07:01:46.728Z,74.10
2022-09-18T07:02:48.591Z,74.03
2022-09-18T07:03:50.476Z,73.97
2022-09-18T07:04:52.261Z,73.95
2022-09-18T07:06:55.929Z,73.96
2022-09-18T07:07:57.736Z,73.95
2022-09-18T07:08:59.679Z,73.94
2022-09-18T07:10:04.560Z,73.90
2022-09-18T07:11:05.212Z,73.83
2022-09-18T07:12:06.924Z,73.70
2022-09-18T07:13:08.718Z,73.70
2022-09-18T07:14:10.557Z,73.69
2022-09-18T07:15:12.374Z,73.63
2022-09-18T07:16:14.831Z,73.60
2022-09-18T07:17:19.146Z,73.56
2022-09-18T07:18:20.203Z,73.54
2022-09-18T07:19:22.033Z,73.48
2022-09-18T07:20:24.083Z,73.37
2022-09-18T07:21:25.849Z,73.28
2022-09-18T07:22:27.649Z,73.27
2022-09-18T07:23:29.443Z,73.22
2022-09-18T07:24:31.270Z,73.25
2022-09-18T07:25:33.063Z,73.26
2022-09-18T07:26:35.181Z,73.26
2022-09-18T07:27:36.977Z,73.28
2022-09-18T07:28:38.766Z,73.20
2022-09-18T07:29:40.630Z,73.17
2022-09-18T07:30:42.516Z,73.17
2022-09-18T07:31:45.183Z,73.16
2022-09-18T07:32:47.481Z,73.09
2022-09-18T07:33:49.300Z,73.07
2022-09-18T07:34:52.975Z,73.00
2022-09-18T07:35:54.807Z,72.94
2022-09-18T07:36:56.709Z,72.81
2022-09-18T07:37:58.498Z,72.74
2022-09-18T07:39:00.420Z,72.72
2022-09-18T07:40:02.391Z,72.67
2022-09-18T07:41:04.253Z,72.56
2022-09-18T07:42:08.950Z,72.43
2022-09-18T07:43:09.779Z,72.38
2022-09-18T07:44:11.577Z,72.40
2022-09-18T07:45:13.412Z,72.42
2022-09-18T07:46:15.845Z,72.58
2022-09-18T07:47:17.656Z,72.66
2022-09-18T07:48:19.467Z,72.74
2022-09-18T07:49:21.260Z,72.68
2022-09-18T07:50:24.637Z,72.52
2022-09-18T07:51:26.666Z,72.41
2022-09-18T07:52:28.519Z,72.38
2022-09-18T07:53:30.328Z,72.36
2022-09-18T07:54:32.153Z,72.34
2022-09-18T07:55:33.985Z,72.32
2022-09-18T07:56:35.874Z,72.30
2022-09-18T07:57:37.669Z,72.01
2022-09-18T07:58:39.491Z,71.79
2022-09-18T07:59:41.308Z,71.49
2022-09-18T08:00:43.238Z,71.25
2022-09-18T08:01:44.997Z,71.10
2022-09-18T08:02:46.911Z,71.32
2022-09-18T08:03:48.773Z,71.28
2022-09-18T08:04:50.555Z,71.20
2022-09-18T08:05:52.291Z,71.27
2022-09-18T08:06:54.378Z,71.22
2022-09-18T08:07:56.229Z,71.40
2022-09-18T08:08:58.023Z,71.51
2022-09-18T08:09:59.838Z,71.56
2022-09-18T08:11:01.716Z,71.57
2022-09-18T08:12:03.583Z,71.48
2022-09-18T08:13:05.379Z,71.56
2022-09-18T08:14:07.174Z,71.80
2022-09-18T08:15:08.969Z,71.98
2022-09-18T08:16:12.218Z,71.70
2022-09-18T08:17:13.979Z,71.46
2022-09-18T08:18:15.843Z,71.30
2022-09-18T08:19:17.655Z,71.23
2022-09-18T08:20:21.385Z,71.16
2022-09-18T08:21:23.168Z,71.28
2022-09-18T08:22:24.968Z,71.27
2022-09-18T08:23:26.783Z,71.36
2022-09-18T08:24:28.583Z,71.32
2022-09-18T08:25:30.399Z,71.25
2022-09-18T08:26:32.538Z,70.99
2022-09-18T08:27:34.235Z,70.92
2022-09-18T08:28:35.939Z,70.85
2022-09-18T08:29:37.764Z,70.73
2022-09-18T08:30:39.648Z,70.44
2022-09-18T08:31:41.573Z,70.45
2022-09-18T08:32:43.397Z,70.53
2022-09-18T08:33:45.229Z,70.58
2022-09-18T08:34:47.021Z,70.48
2022-09-18T08:35:48.830Z,70.45
2022-09-18T08:36:50.671Z,70.45
2022-09-18T08:37:52.474Z,70.33
2022-09-18T08:38:54.281Z,70.15
2022-09-18T08:39:56.134Z,70.10
2022-09-18T08:40:57.980Z,70.08
2022-09-18T08:41:59.837Z,70.00
2022-09-18T08:43:01.643Z,69.93
2022-09-18T08:44:03.329Z,70.05
2022-09-18T08:45:05.153Z,70.46
2022-09-18T08:46:07.363Z,70.06
2022-09-18T08:47:09.190Z,69.63
2022-09-18T08:48:10.987Z,69.44
2022-09-18T08:49:12.871Z,69.48
2022-09-18T08:50:15.377Z,69.94
2022-09-18T08:51:17.181Z,69.57
2022-09-18T08:52:19.012Z,68.89
2022-09-18T08:53:21.216Z,68.89
2022-09-18T08:54:23.020Z,68.88
2022-09-18T08:55:24.838Z,68.75
2022-09-18T08:56:27.250Z,68.02
2022-09-18T08:57:29.107Z,68.09
2022-09-18T08:58:30.906Z,67.96
2022-09-18T08:59:32.697Z,68.01
2022-09-18T09:00:34.662Z,68.30
2022-09-18T09:01:36.459Z,68.41
2022-09-18T09:02:38.387Z,68.30
2022-09-18T09:03:40.156Z,68.55
2022-09-18T09:04:42.065Z,69.23
2022-09-18T09:05:43.889Z,69.26
2022-09-18T09:06:45.793Z,68.56
2022-09-18T09:07:47.617Z,68.57
2022-09-18T09:08:49.423Z,68.48
2022-09-18T09:09:51.223Z,68.44
2022-09-18T09:10:53.339Z,68.57
2022-09-18T09:11:55.143Z,68.60
2022-09-18T09:12:56.994Z,68.70
2022-09-18T09:13:58.801Z,68.50
2022-09-18T09:15:00.632Z,68.51
2022-09-18T09:16:02.537Z,68.47
2022-09-18T09:17:04.314Z,68.61
2022-09-18T09:18:06.157Z,69.08
2022-09-18T09:19:07.952Z,69.00
2022-09-18T09:20:10.072Z,69.05
2022-09-18T09:21:12.019Z,69.02
2022-09-18T09:22:13.779Z,69.09
2022-09-18T09:23:15.610Z,68.41
2022-09-18T09:24:17.411Z,68.44
2022-09-18T09:25:19.215Z,69.05
2022-09-18T09:26:21.341Z,68.87
2022-09-18T09:27:23.135Z,68.92
2022-09-18T09:28:24.972Z,68.85
2022-09-18T09:29:26.784Z,68.93
2022-09-18T09:30:29.001Z,68.18
2022-09-18T09:31:30.849Z,67.69
2022-09-18T09:32:32.728Z,67.96
2022-09-18T09:33:34.552Z,68.11
2022-09-18T09:34:36.348Z,68.45
2022-09-18T09:35:38.231Z,67.95
2022-09-18T09:36:40.244Z,67.49
2022-09-18T09:37:42.053Z,67.55
2022-09-18T09:38:43.902Z,67.33
2022-09-18T09:39:45.709Z,67.99
2022-09-18T09:40:47.517Z,68.40
2022-09-18T09:41:49.328Z,67.76
2022-09-18T09:42:51.120Z,67.49
2022-09-18T09:43:52.962Z,67.30
2022-09-18T09:44:54.757Z,67.05
2022-09-18T09:45:56.562Z,67.20
2022-09-18T09:46:58.733Z,67.35
2022-09-18T09:48:00.479Z,67.12
2022-09-18T09:49:02.329Z,67.27
2022-09-18T09:50:04.272Z,67.74
2022-09-18T09:51:06.095Z,67.72
2022-09-18T09:52:09.344Z,67.59
2022-09-18T09:53:11.432Z,67.30
2022-09-18T09:54:13.287Z,67.32
2022-09-18T09:55:15.098Z,67.34
2022-09-18T09:56:17.095Z,67.54
2022-09-18T09:57:18.914Z,67.25
2022-09-18T09:58:20.719Z,67.23
2022-09-18T09:59:22.566Z,67.38
2022-09-18T10:00:24.676Z,66.74
2022-09-18T10:01:26.478Z,66.73
2022-09-18T10:02:28.337Z,67.16
2022-09-18T10:03:30.099Z,67.20
2022-09-18T10:04:31.921Z,66.49
2022-09-18T10:05:33.718Z,66.13
2022-09-18T10:06:35.675Z,66.05
2022-09-18T10:07:37.480Z,65.81
2022-09-18T10:08:39.276Z,66.21
2022-09-18T10:09:41.121Z,65.92
2022-09-18T10:10:43.227Z,66.08
2022-09-18T10:11:45.039Z,66.06
2022-09-18T10:12:46.836Z,66.01
2022-09-18T10:13:48.623Z,66.45
2022-09-18T10:14:50.479Z,66.80
2022-09-18T10:15:52.422Z,66.62
2022-09-18T10:16:54.356Z,66.05
2022-09-18T10:17:56.160Z,66.02
2022-09-18T10:18:57.987Z,66.23
2022-09-18T10:19:59.826Z,66.23
2022-09-18T10:21:01.623Z,66.25
2022-09-18T10:22:03.527Z,66.09
2022-09-18T10:23:05.333Z,66.95
2022-09-18T10:24:07.203Z,67.49
2022-09-18T10:25:09.042Z,67.73
2022-09-18T10:26:11.458Z,67.40
2022-09-18T10:27:13.260Z,66.45
2022-09-18T10:28:15.060Z,66.03
2022-09-18T10:29:16.867Z,66.00
2022-09-18T10:30:20.522Z,66.01
2022-09-18T10:31:22.405Z,65.70
2022-09-18T10:32:24.233Z,65.45
2022-09-18T10:33:26.035Z,65.25
2022-09-18T10:34:27.850Z,65.26
2022-09-18T10:35:29.700Z,65.07
2022-09-18T10:36:33.320Z,64.32
2022-09-18T10:37:35.289Z,63.95
2022-09-18T10:38:37.099Z,63.77
2022-09-18T10:39:38.905Z,63.72
2022-09-18T10:40:40.874Z,63.61
2022-09-18T10:41:43.389Z,63.16
2022-09-18T10:42:45.582Z,63.24
2022-09-18T10:43:47.399Z,62.90
2022-09-18T10:44:49.201Z,62.23
2022-09-18T10:45:51.031Z,61.86
2022-09-18T10:46:53.172Z,61.30
2022-09-18T10:47:54.929Z,61.10
2022-09-18T10:48:56.747Z,60.74
2022-09-18T10:49:58.549Z,60.46
2022-09-18T10:51:00.492Z,60.36
2022-09-18T10:52:02.298Z,60.26
2022-09-18T10:53:04.158Z,60.20
2022-09-18T10:54:05.958Z,60.33
2022-09-18T10:55:07.757Z,60.56
2022-09-18T10:56:10.030Z,60.65
2022-09-18T10:57:12.012Z,60.27
2022-09-18T10:58:13.811Z,60.08
2022-09-18T10:59:15.659Z,59.48
2022-09-18T11:00:17.957Z,59.34
2022-09-18T11:01:19.849Z,59.13
2022-09-18T11:02:21.822Z,58.97
2022-09-18T11:03:23.616Z,58.82
2022-09-18T11:04:25.424Z,58.95
2022-09-18T11:05:27.218Z,58.46
2022-09-18T11:06:29.447Z,58.66
2022-09-18T11:07:31.252Z,58.59
2022-09-18T11:08:33.068Z,58.56
2022-09-18T11:09:34.868Z,58.26
2022-09-18T11:10:37.077Z,58.38
2022-09-18T11:11:38.920Z,58.23
2022-09-18T11:12:40.762Z,58.31
2022-09-18T11:13:42.603Z,58.23
2022-09-18T11:14:44.393Z,58.13
2022-09-18T11:15:46.099Z,58.17
2022-09-18T11:16:48.210Z,58.00
2022-09-18T11:17:49.992Z,57.61
2022-09-18T11:18:51.835Z,57.36
2022-09-18T11:19:53.576Z,57.30
2022-09-18T11:20:55.483Z,57.61
2022-09-18T11:21:57.321Z,57.51
2022-09-18T11:22:59.128Z,57.37
2022-09-18T11:24:01.059Z,57.25
2022-09-18T11:25:02.800Z,57.05
2022-09-18T11:26:04.810Z,57.19
2022-09-18T11:27:06.625Z,56.99
2022-09-18T11:28:08.317Z,56.93
2022-09-18T11:29:10.116Z,56.78
2022-09-18T11:30:12.453Z,56.42
2022-09-18T11:31:14.261Z,56.65
2022-09-18T11:32:16.088Z,56.84
2022-09-18T11:33:17.897Z,56.84
2022-09-18T11:34:19.684Z,56.89
2022-09-18T11:35:21.379Z,57.08
2022-09-18T11:36:23.487Z,57.22
2022-09-18T11:37:25.352Z,57.31
2022-09-18T11:38:27.253Z,57.34
2022-09-18T11:39:29.067Z,57.49
2022-09-18T11:40:31.673Z,57.46
2022-09-18T11:41:35.297Z,57.49
2022-09-18T11:42:37.136Z,57.33
2022-09-18T11:43:38.961Z,57.21
2022-09-18T11:44:40.741Z,57.32
2022-09-18T11:45:42.489Z,57.56
2022-09-18T11:46:44.541Z,57.68
2022-09-18T11:47:46.431Z,57.61
2022-09-18T11:48:48.274Z,57.62
2022-09-18T11:49:50.036Z,57.67
2022-09-18T11:50:52.137Z,57.87
2022-09-18T11:51:53.925Z,57.88
2022-09-18T11:52:55.804Z,57.88
2022-09-18T11:53:57.611Z,57.92
2022-09-18T11:54:59.518Z,57.94
2022-09-18T11:56:01.300Z,58.03
2022-09-18T11:57:03.104Z,58.11
2022-09-18T11:58:04.954Z,58.26
2022-09-18T11:59:06.754Z,58.29
2022-09-18T12:00:09.181Z,58.10
2022-09-18T12:01:10.987Z,58.21
2022-09-18T12:02:12.854Z,58.06
2022-09-18T12:03:14.750Z,58.01
2022-09-18T12:04:16.510Z,57.93
2022-09-18T12:05:18.328Z,57.85
2022-09-18T12:06:21.994Z,57.75
2022-09-18T12:07:37.657Z,57.59
2022-09-18T12:08:39.543Z,57.62
2022-09-18T12:09:41.349Z,57.64
2022-09-18T12:10:44.941Z,57.66
2022-09-18T12:11:46.765Z,57.60
2022-09-18T12:12:48.584Z,57.61
2022-09-18T12:13:51.306Z,57.58
2022-09-18T12:14:53.123Z,57.62
2022-09-18T12:15:55.009Z,57.53
2022-09-18T12:17:00.634Z,57.74
2022-09-18T12:18:00.523Z,57.73
2022-09-18T12:19:02.364Z,57.75
2022-09-18T12:20:04.513Z,57.90
2022-09-18T12:21:06.288Z,57.90
2022-09-18T12:22:08.107Z,57.92
2022-09-18T12:23:09.930Z,57.92
2022-09-18T12:24:11.768Z,57.82
2022-09-18T12:25:13.600Z,57.82
2022-09-18T12:26:17.313Z,57.86
2022-09-18T12:27:19.123Z,58.11
2022-09-18T12:28:20.902Z,58.08
2022-09-18T12:29:22.734Z,58.19
2022-09-18T12:30:24.650Z,58.12
2022-09-18T12:31:26.503Z,58.08
2022-09-18T12:32:28.246Z,58.33
2022-09-18T12:33:33.908Z,58.43
2022-09-18T12:34:33.688Z,58.23
2022-09-18T12:35:35.579Z,58.02
2022-09-18T12:36:37.562Z,58.35
2022-09-18T12:37:39.327Z,58.28
2022-09-18T12:38:41.120Z,58.42
2022-09-18T12:39:43.723Z,58.51
2022-09-18T12:40:45.632Z,58.49
2022-09-18T12:41:47.405Z,58.61
2022-09-18T12:42:49.231Z,58.61
2022-09-18T12:43:51.022Z,58.60
2022-09-18T12:44:52.866Z,58.43
2022-09-18T12:45:54.736Z,58.59
2022-09-18T12:47:00.339Z,58.80
2022-09-18T12:48:00.335Z,58.84
2022-09-18T12:49:02.134Z,58.67
2022-09-18T12:50:04.070Z,58.80
2022-09-18T12:51:05.909Z,58.91
2022-09-18T12:52:07.726Z,58.91
2022-09-18T12:53:10.218Z,58.86
2022-09-18T12:54:12.191Z,58.85
2022-09-18T12:56:21.120Z,59.18
2022-09-18T12:57:22.962Z,59.07
2022-09-18T12:58:24.790Z,59.08
2022-09-18T12:59:26.587Z,59.09
2022-09-18T13:00:28.580Z,59.21
2022-09-18T13:01:30.521Z,59.15
2022-09-18T13:02:32.447Z,59.35
2022-09-18T13:03:34.434Z,59.45
2022-09-18T13:04:36.251Z,59.55
2022-09-18T13:05:37.969Z,59.56
2022-09-18T13:06:40.002Z,59.31
2022-09-18T13:07:41.726Z,59.37
2022-09-18T13:08:43.523Z,59.26
2022-09-18T13:09:45.308Z,59.35
2022-09-18T13:10:47.216Z,59.39
2022-09-18T13:11:49.057Z,59.41
2022-09-18T13:12:51.041Z,59.43
2022-09-18T13:13:52.931Z,59.42
2022-09-18T13:14:54.738Z,59.38
2022-09-18T13:15:56.598Z,59.33
2022-09-18T13:16:59.188Z,59.44
2022-09-18T13:18:00.986Z,59.61
2022-09-18T13:19:02.842Z,59.67
2022-09-18T13:20:04.724Z,59.54